Time;durP1;ratioP1;P1;durP2;ratioP2;P2;SDS_P1;SDS_P2;PMS_P1;PMS_P2;Temp;Humidity;BMP_temperature;BMP_pressure;BME280_temperature;BME280_humidity;BME280_pressure;Samples;Min_cycle;Max_cycle;Signal;HPM_P1;HPM_P2
2024/04/26 00:00:50;;;;;;;1.30;1.20;;;6.80;99.90;;;;;;5332683;26;20029;-58
2024/04/26 00:03:17;;;;;;;1.40;1.13;;;6.80;99.90;;;;;;5330850;26;20001;-59
2024/04/26 00:05:43;;;;;;;2.88;1.05;;;6.80;99.90;;;;;;5332616;26;20008;-57
2024/04/26 00:08:08;;;;;;;1.77;1.20;;;6.80;99.90;;;;;;5328219;26;20001;-58
2024/04/26 00:10:34;;;;;;;1.67;1.20;;;6.80;99.90;;;;;;5323377;26;20216;-59
2024/04/26 00:13:00;;;;;;;1.17;1.08;;;6.70;99.90;;;;;;5326634;26;20452;-59
2024/04/26 00:15:26;;;;;;;2.00;1.40;;;6.70;99.90;;;;;;5325274;26;19998;-59
2024/04/26 00:17:52;;;;;;;1.75;1.13;;;6.70;99.90;;;;;;5331322;26;19996;-60
2024/04/26 00:20:17;;;;;;;1.27;1.02;;;6.70;99.90;;;;;;5328495;26;19997;-59
2024/04/26 00:22:44;;;;;;;1.15;1.05;;;6.70;99.90;;;;;;5326419;26;19997;-59
2024/04/26 00:25:10;;;;;;;3.25;1.50;;;6.60;99.90;;;;;;5327464;26;20005;-59
2024/04/26 00:27:36;;;;;;;2.05;1.38;;;6.60;99.90;;;;;;5327861;26;20455;-59
2024/04/26 00:30:04;;;;;;;1.17;1.08;;;6.70;99.90;;;;;;5324835;26;20001;-61
2024/04/26 00:32:30;;;;;;;1.42;1.10;;;6.70;99.90;;;;;;5324341;26;20009;-59
2024/04/26 00:34:55;;;;;;;1.27;1.08;;;6.70;99.90;;;;;;5325845;26;20012;-58
2024/04/26 00:37:21;;;;;;;1.98;1.20;;;6.70;99.90;;;;;;5331466;26;20009;-59
2024/04/26 00:39:47;;;;;;;1.88;1.30;;;6.60;99.90;;;;;;5324365;26;20351;-59
2024/04/26 00:42:14;;;;;;;3.70;1.58;;;6.60;99.90;;;;;;5325929;26;20133;-59
2024/04/26 00:44:40;;;;;;;1.65;1.15;;;6.70;99.90;;;;;;5329236;26;20012;-59
2024/04/26 00:47:07;;;;;;;1.63;1.10;;;6.70;99.90;;;;;;5331605;26;20444;-59
2024/04/26 00:49:35;;;;;;;1.20;1.10;;;6.70;99.90;;;;;;5328296;26;20036;-60
2024/04/26 00:52:02;;;;;;;2.33;1.75;;;6.80;99.90;;;;;;5325188;26;19997;-58
2024/04/26 00:54:30;;;;;;;2.72;1.73;;;6.80;99.90;;;;;;5326830;26;20001;-59
2024/04/26 00:56:58;;;;;;;2.83;1.55;;;6.90;99.90;;;;;;5329536;26;19997;-59
2024/04/26 00:59:25;;;;;;;2.13;1.35;;;6.90;99.90;;;;;;5320302;26;20468;-59
2024/04/26 01:01:52;;;;;;;1.80;1.40;;;6.90;99.90;;;;;;5331297;26;20016;-59
2024/04/26 01:04:17;;;;;;;2.03;1.50;;;7.00;99.90;;;;;;5329053;26;19997;-59
2024/04/26 01:06:43;;;;;;;3.33;1.58;;;7.00;99.90;;;;;;5324468;26;20006;-59
2024/04/26 01:09:10;;;;;;;1.90;1.40;;;7.00;99.90;;;;;;5330246;26;20001;-59
2024/04/26 01:11:36;;;;;;;2.28;1.63;;;7.10;99.90;;;;;;5326357;26;20049;-59
2024/04/26 01:14:02;;;;;;;2.28;1.70;;;7.10;99.90;;;;;;5328280;26;20002;-59
2024/04/26 01:16:28;;;;;;;2.40;1.67;;;7.10;99.90;;;;;;5323717;26;20088;-58
2024/04/26 01:18:55;;;;;;;1.63;1.50;;;7.10;99.90;;;;;;5328283;26;20078;-59
2024/04/26 01:21:22;;;;;;;3.08;1.88;;;7.10;99.90;;;;;;5326480;26;20025;-59
2024/04/26 01:23:48;;;;;;;2.58;1.90;;;7.20;99.90;;;;;;5329058;26;20020;-59
2024/04/26 01:26:14;;;;;;;2.30;1.88;;;7.20;99.90;;;;;;5324307;26;20013;-59
2024/04/26 01:28:39;;;;;;;4.00;2.00;;;7.30;99.90;;;;;;5323707;26;20021;-59
2024/04/26 01:31:06;;;;;;;5.43;2.60;;;7.10;99.90;;;;;;5332956;26;19997;-59
2024/04/26 01:33:32;;;;;;;3.47;2.40;;;7.10;99.90;;;;;;5329788;26;20001;-59
2024/04/26 01:35:58;;;;;;;3.60;2.38;;;7.10;99.90;;;;;;5326559;26;19996;-59
2024/04/26 01:38:24;;;;;;;2.72;2.03;;;7.20;99.90;;;;;;5327532;26;20012;-59
2024/04/26 01:40:49;;;;;;;2.15;1.90;;;7.30;99.90;;;;;;5328121;26;20460;-59
2024/04/26 01:43:15;;;;;;;3.40;2.35;;;7.30;99.90;;;;;;5331358;26;20572;-58
2024/04/26 01:45:41;;;;;;;2.85;2.35;;;7.30;99.90;;;;;;5326524;26;20013;-58
2024/04/26 01:48:07;;;;;;;2.22;1.90;;;7.30;99.90;;;;;;5324143;26;20411;-59
2024/04/26 01:50:33;;;;;;;5.28;2.45;;;7.30;99.90;;;;;;5330199;26;20463;-59
2024/04/26 01:52:59;;;;;;;2.58;1.83;;;7.40;99.90;;;;;;5325326;26;20001;-58
2024/04/26 01:55:25;;;;;;;2.38;2.13;;;7.50;99.90;;;;;;5324409;26;20448;-58
2024/04/26 01:57:51;;;;;;;3.40;2.17;;;7.50;99.90;;;;;;5326296;26;20002;-58
2024/04/26 02:00:17;;;;;;;3.17;2.03;;;7.50;99.90;;;;;;5328170;26;20009;-59
2024/04/26 02:02:43;;;;;;;4.00;2.58;;;7.50;99.90;;;;;;5324515;26;20030;-60
2024/04/26 02:05:09;;;;;;;4.82;2.80;;;7.50;99.90;;;;;;5328682;26;20011;-59
2024/04/26 02:07:35;;;;;;;3.70;2.50;;;7.50;99.90;;;;;;5323823;26;20020;-59
2024/04/26 02:10:01;;;;;;;4.60;2.53;;;7.50;99.90;;;;;;5307983;27;20080;-60
2024/04/26 02:12:27;;;;;;;3.53;2.70;;;7.60;99.90;;;;;;5329119;26;20009;-59
2024/04/26 02:14:52;;;;;;;3.55;2.33;;;7.60;99.90;;;;;;5325051;26;20457;-59
2024/04/26 02:17:18;;;;;;;6.65;2.42;;;7.70;99.90;;;;;;5327365;26;20348;-59
2024/04/26 02:19:44;;;;;;;2.20;1.90;;;7.60;99.90;;;;;;5327070;26;20007;-59
2024/04/26 02:22:10;;;;;;;4.43;2.50;;;7.60;99.90;;;;;;5323704;26;20012;-59
2024/04/26 02:24:36;;;;;;;2.67;1.90;;;7.60;99.90;;;;;;5330687;26;20078;-58
2024/04/26 02:27:02;;;;;;;3.05;2.00;;;7.70;99.90;;;;;;5323153;26;20005;-60
2024/04/26 02:29:28;;;;;;;4.10;2.70;;;7.70;99.90;;;;;;5323525;26;20072;-58
2024/04/26 02:31:54;;;;;;;6.18;2.30;;;7.70;99.90;;;;;;5330696;26;20003;-58
2024/04/26 02:34:20;;;;;;;4.10;2.33;;;7.60;99.90;;;;;;5328315;26;20011;-59
2024/04/26 02:36:46;;;;;;;3.28;2.10;;;7.60;99.90;;;;;;5325813;26;19996;-59
2024/04/26 02:39:12;;;;;;;1.75;1.65;;;7.60;99.90;;;;;;5322296;26;20003;-59
2024/04/26 02:41:37;;;;;;;3.53;2.30;;;7.50;99.90;;;;;;5327645;26;20012;-59
2024/04/26 02:44:05;;;;;;;2.70;2.08;;;7.50;99.90;;;;;;5324755;26;20448;-59
2024/04/26 02:46:34;;;;;;;3.75;2.40;;;7.50;99.90;;;;;;5328156;26;19997;-59
2024/04/26 02:49:01;;;;;;;3.15;2.72;;;7.50;99.90;;;;;;5324023;26;20053;-59
2024/04/26 02:51:27;;;;;;;2.58;1.88;;;7.50;99.90;;;;;;5325040;26;20071;-59
2024/04/26 02:53:53;;;;;;;2.83;2.33;;;7.40;99.90;;;;;;5323606;26;19998;-58
2024/04/26 02:56:19;;;;;;;5.30;2.38;;;7.40;99.90;;;;;;5330283;26;19997;-58
2024/04/26 02:58:45;;;;;;;3.78;2.33;;;7.30;99.90;;;;;;5330314;26;20045;-59
2024/04/26 03:01:11;;;;;;;2.33;2.08;;;7.20;99.90;;;;;;5327225;26;19998;-58
2024/04/26 03:03:38;;;;;;;2.80;1.98;;;7.10;99.90;;;;;;5322494;26;20006;-59
2024/04/26 03:06:09;;;;;;;3.20;1.83;;;7.10;99.90;;;;;;5319664;26;20010;-58
2024/04/26 03:08:39;;;;;;;2.88;2.20;;;7.00;99.90;;;;;;5330326;26;20451;-59
2024/04/26 03:11:07;;;;;;;3.45;2.22;;;6.90;99.90;;;;;;5325566;26;20012;-59
2024/04/26 03:13:34;;;;;;;2.75;2.17;;;6.90;99.90;;;;;;5326325;26;20589;-58
2024/04/26 03:16:00;;;;;;;2.50;1.95;;;6.80;99.90;;;;;;5324498;26;20005;-59
2024/04/26 03:18:27;;;;;;;6.82;2.55;;;6.70;99.90;;;;;;5335693;26;19997;-59
2024/04/26 03:20:53;;;;;;;1.92;1.60;;;6.60;99.90;;;;;;5328106;26;20001;-59
2024/04/26 03:23:19;;;;;;;3.03;1.90;;;6.60;99.90;;;;;;5322602;26;20012;-60
2024/04/26 03:25:45;;;;;;;2.80;2.03;;;6.60;99.90;;;;;;5322519;26;19994;-59
2024/04/26 03:28:11;;;;;;;2.65;1.92;;;6.60;99.90;;;;;;5330497;26;20466;-59
2024/04/26 03:30:37;;;;;;;3.03;2.40;;;6.50;99.90;;;;;;5322976;26;19997;-59
2024/04/26 03:33:03;;;;;;;3.78;2.25;;;6.50;99.90;;;;;;5331976;26;20033;-59
2024/04/26 03:35:29;;;;;;;3.20;1.88;;;6.50;99.90;;;;;;5328440;26;20005;-58
2024/04/26 03:37:55;;;;;;;3.28;2.40;;;6.50;99.90;;;;;;5339217;26;20011;-58
2024/04/26 03:40:21;;;;;;;5.07;2.95;;;6.40;99.90;;;;;;5317110;26;20428;-58
2024/04/26 03:42:46;;;;;;;3.20;2.22;;;6.40;99.90;;;;;;5326124;26;20009;-59
2024/04/26 03:45:12;;;;;;;3.53;2.20;;;6.40;99.90;;;;;;5331791;26;20398;-59
2024/04/26 03:47:38;;;;;;;3.17;2.30;;;6.40;99.90;;;;;;5331080;26;20001;-59
2024/04/26 03:50:04;;;;;;;5.28;2.78;;;6.40;99.90;;;;;;5326842;26;20001;-59
2024/04/26 03:52:30;;;;;;;3.33;2.33;;;6.30;99.90;;;;;;5325319;26;20007;-59
2024/04/26 03:54:56;;;;;;;4.82;2.55;;;6.30;99.90;;;;;;5323797;26;20466;-58
2024/04/26 03:57:22;;;;;;;5.88;2.67;;;6.30;99.90;;;;;;5326468;26;19998;-58
2024/04/26 03:59:48;;;;;;;3.28;2.50;;;6.30;99.90;;;;;;5329250;26;20001;-58
2024/04/26 04:02:14;;;;;;;3.38;2.45;;;6.30;99.90;;;;;;5331538;26;20024;-59
2024/04/26 04:04:40;;;;;;;3.20;2.40;;;6.30;99.90;;;;;;5325168;26;19997;-58
2024/04/26 04:07:05;;;;;;;5.38;2.30;;;6.30;99.90;;;;;;5325729;26;20009;-59
2024/04/26 04:09:31;;;;;;;4.03;2.90;;;6.30;99.90;;;;;;5330743;26;20364;-59
2024/04/26 04:11:57;;;;;;;2.35;2.10;;;6.30;99.90;;;;;;5327935;26;20008;-58
2024/04/26 04:14:23;;;;;;;5.13;2.55;;;6.30;99.90;;;;;;5333064;26;19997;-59
2024/04/26 04:16:49;;;;;;;5.18;2.40;;;6.30;99.90;;;;;;5320383;26;20475;-58
2024/04/26 04:19:15;;;;;;;5.80;2.83;;;6.30;99.90;;;;;;5322724;26;19994;-59
2024/04/26 04:21:40;;;;;;;4.32;2.40;;;6.40;99.90;;;;;;5298393;27;20464;-58
2024/04/26 04:24:06;;;;;;;3.17;2.30;;;6.40;99.90;;;;;;5290484;27;20001;-59
2024/04/26 04:26:32;;;;;;;5.28;2.78;;;6.40;99.90;;;;;;5291108;27;19998;-59
2024/04/26 04:28:58;;;;;;;4.00;2.90;;;6.50;99.90;;;;;;5298060;27;20010;-58
2024/04/26 04:31:24;;;;;;;5.53;3.03;;;6.50;99.90;;;;;;5298419;27;20042;-59
2024/04/26 04:33:50;;;;;;;3.97;2.75;;;6.60;99.90;;;;;;5294607;27;20002;-58
2024/04/26 04:36:16;;;;;;;4.63;2.35;;;6.70;99.90;;;;;;5294596;26;19998;-58
2024/04/26 04:38:42;;;;;;;3.78;2.53;;;6.70;99.90;;;;;;5292643;27;20362;-59
2024/04/26 04:41:08;;;;;;;3.55;2.45;;;6.80;99.90;;;;;;5296413;26;20001;-59
2024/04/26 04:43:34;;;;;;;4.95;2.47;;;6.80;99.90;;;;;;5291010;27;20002;-59
2024/04/26 04:46:00;;;;;;;3.55;2.60;;;6.80;99.90;;;;;;5284238;27;19998;-59
2024/04/26 04:48:26;;;;;;;6.13;2.47;;;6.90;99.90;;;;;;5294463;27;20001;-58
2024/04/26 04:50:52;;;;;;;6.63;2.78;;;7.00;99.90;;;;;;5292382;27;20002;-59
2024/04/26 04:53:18;;;;;;;4.25;2.78;;;7.00;99.90;;;;;;5294474;27;20034;-58
2024/04/26 04:55:44;;;;;;;6.72;2.90;;;7.00;99.90;;;;;;5294146;27;20522;-58
2024/04/26 04:58:10;;;;;;;5.35;2.80;;;7.10;99.90;;;;;;5290565;27;20001;-59
2024/04/26 05:00:35;;;;;;;5.10;2.83;;;7.10;99.90;;;;;;5291946;27;20073;-59
2024/04/26 05:03:01;;;;;;;3.97;2.65;;;7.20;99.90;;;;;;5286308;26;20038;-59
2024/04/26 05:05:27;;;;;;;3.53;2.42;;;7.20;99.90;;;;;;5290302;27;20002;-59
2024/04/26 05:07:53;;;;;;;2.85;2.30;;;7.20;99.90;;;;;;5296163;27;20006;-59
2024/04/26 05:10:19;;;;;;;3.83;2.25;;;7.30;99.90;;;;;;5292171;27;20444;-59
2024/04/26 05:12:44;;;;;;;6.15;2.67;;;7.30;99.90;;;;;;5294484;27;19998;-58
2024/04/26 05:15:10;;;;;;;2.55;2.35;;;7.40;99.90;;;;;;5288322;27;20018;-59
2024/04/26 05:17:36;;;;;;;4.18;2.90;;;7.40;99.90;;;;;;5291577;27;19998;-59
2024/04/26 05:20:02;;;;;;;5.70;3.35;;;7.40;99.90;;;;;;5315989;26;20016;-59
2024/04/26 05:22:28;;;;;;;5.25;2.80;;;7.50;99.90;;;;;;5332470;26;20007;-59
2024/04/26 05:24:55;;;;;;;4.63;2.88;;;7.50;99.90;;;;;;5316075;26;19998;-59
2024/04/26 05:27:20;;;;;;;4.13;2.75;;;7.70;99.90;;;;;;5325128;26;20443;-59
2024/04/26 05:29:46;;;;;;;4.93;3.10;;;7.80;99.90;;;;;;5328976;26;20012;-58
2024/04/26 05:32:13;;;;;;;5.75;2.80;;;7.80;99.90;;;;;;5329482;26;20009;-59
2024/04/26 05:34:40;;;;;;;4.53;2.65;;;8.00;99.90;;;;;;5328521;26;20013;-58
2024/04/26 05:37:08;;;;;;;5.20;2.38;;;8.00;99.90;;;;;;5329394;26;20448;-59
2024/04/26 05:39:34;;;;;;;5.85;3.20;;;8.10;99.90;;;;;;5324354;26;20079;-59
2024/04/26 05:42:00;;;;;;;6.60;2.60;;;8.30;99.90;;;;;;5327487;26;20012;-58
2024/04/26 05:44:25;;;;;;;4.10;2.63;;;8.40;99.90;;;;;;5315683;26;20013;-59
2024/04/26 05:46:53;;;;;;;4.20;2.60;;;8.60;99.90;;;;;;5326593;26;20001;-59
2024/04/26 05:49:19;;;;;;;3.95;2.63;;;8.90;99.90;;;;;;5324307;26;19997;-59
2024/04/26 05:51:45;;;;;;;4.20;2.70;;;9.20;99.90;;;;;;5328966;26;20447;-59
2024/04/26 05:54:10;;;;;;;5.65;2.95;;;9.60;99.90;;;;;;5319710;26;20448;-59
2024/04/26 05:56:36;;;;;;;4.18;2.50;;;9.90;99.90;;;;;;5319809;26;20452;-58
2024/04/26 05:59:02;;;;;;;3.33;2.40;;;10.20;99.90;;;;;;5320114;26;20447;-59
2024/04/26 06:01:28;;;;;;;4.30;2.10;;;10.50;99.90;;;;;;5322925;26;20347;-59
2024/04/26 06:03:54;;;;;;;4.93;2.60;;;10.80;99.90;;;;;;5322479;26;20526;-60
2024/04/26 06:06:19;;;;;;;5.57;2.20;;;11.20;99.90;;;;;;5322476;26;19997;-59
2024/04/26 06:08:46;;;;;;;3.72;2.38;;;11.70;99.40;;;;;;5326877;26;20001;-59
2024/04/26 06:11:15;;;;;;;4.95;2.42;;;12.10;98.10;;;;;;5309611;26;20005;-59
2024/04/26 06:13:40;;;;;;;2.95;2.13;;;12.20;97.40;;;;;;5325741;26;20040;-58
2024/04/26 06:16:07;;;;;;;4.22;3.13;;;12.30;97.40;;;;;;5325564;26;20088;-59
2024/04/26 06:18:38;;;;;;;4.38;2.42;;;12.40;96.50;;;;;;5315184;26;20013;-59
2024/04/26 06:21:04;;;;;;;4.60;1.90;;;12.50;96.60;;;;;;5322798;26;20467;-59
2024/04/26 06:23:30;;;;;;;3.45;1.98;;;12.70;96.30;;;;;;5329448;26;20002;-59
2024/04/26 06:25:56;;;;;;;5.03;2.30;;;12.90;96.20;;;;;;5324232;26;20025;-59
2024/04/26 06:28:22;;;;;;;5.03;1.95;;;13.10;95.40;;;;;;5288085;26;20521;-60
2024/04/26 06:30:47;;;;;;;6.40;1.95;;;12.90;94.60;;;;;;5318865;26;20329;-64
2024/04/26 06:33:14;;;;;;;4.93;2.38;;;12.60;95.80;;;;;;5316011;26;20444;-59
2024/04/26 06:35:43;;;;;;;2.72;2.17;;;12.50;95.80;;;;;;5288333;27;20075;-59
2024/04/26 06:38:14;;;;;;;5.00;2.13;;;12.30;96.00;;;;;;5322290;26;20048;-59
2024/04/26 06:40:40;;;;;;;3.47;2.60;;;12.10;96.10;;;;;;5314581;26;20009;-59
2024/04/26 06:43:06;;;;;;;2.70;2.05;;;12.10;96.40;;;;;;5324079;26;20009;-59
2024/04/26 06:45:32;;;;;;;7.15;2.53;;;12.10;96.40;;;;;;5321489;26;20013;-60
2024/04/26 06:47:58;;;;;;;4.90;1.92;;;11.90;96.30;;;;;;5320301;26;19997;-59
2024/04/26 06:50:24;;;;;;;3.50;2.00;;;11.90;96.20;;;;;;5325878;26;20041;-60
2024/04/26 06:52:50;;;;;;;3.60;2.00;;;11.80;96.30;;;;;;5300706;26;20432;-60
2024/04/26 06:55:15;;;;;;;8.30;2.38;;;11.90;95.80;;;;;;5311717;26;20087;-60
2024/04/26 06:57:41;;;;;;;3.70;1.77;;;11.80;96.20;;;;;;5316563;26;20000;-59
2024/04/26 07:00:08;;;;;;;3.65;1.88;;;11.80;95.70;;;;;;5314901;26;20017;-59
2024/04/26 07:02:34;;;;;;;3.88;2.17;;;11.70;96.40;;;;;;5314380;26;20037;-59
2024/04/26 07:05:00;;;;;;;5.63;2.17;;;11.60;96.20;;;;;;5322819;26;20012;-59
2024/04/26 07:07:25;;;;;;;4.95;2.15;;;11.60;96.60;;;;;;5320285;26;20440;-59
2024/04/26 07:09:51;;;;;;;5.07;2.28;;;11.70;96.80;;;;;;5330452;26;20013;-59
2024/04/26 07:12:17;;;;;;;6.03;2.15;;;11.90;96.70;;;;;;5330407;26;19998;-59
2024/04/26 07:14:43;;;;;;;3.72;2.38;;;12.10;96.10;;;;;;5333470;26;20805;-60
2024/04/26 07:17:09;;;;;;;4.28;2.30;;;12.20;95.90;;;;;;5325622;26;20356;-59
2024/04/26 07:19:39;;;;;;;7.05;2.63;;;12.10;96.70;;;;;;5288088;26;20124;-59
2024/04/26 07:22:08;;;;;;;3.88;2.20;;;12.10;96.30;;;;;;5325003;26;20013;-59
2024/04/26 07:24:35;;;;;;;6.72;2.05;;;12.20;96.00;;;;;;5332379;26;20082;-59
2024/04/26 07:27:01;;;;;;;3.00;2.05;;;12.30;95.30;;;;;;5326116;26;20002;-59
2024/04/26 07:29:27;;;;;;;4.47;2.00;;;12.40;95.50;;;;;;5331266;26;20086;-59
2024/04/26 07:31:53;;;;;;;3.28;2.00;;;12.40;95.50;;;;;;5325542;26;20456;-60
2024/04/26 07:34:19;;;;;;;3.45;1.83;;;12.50;94.80;;;;;;5324715;26;20078;-59
2024/04/26 07:36:45;;;;;;;4.90;2.22;;;12.80;94.90;;;;;;5326192;26;20515;-60
2024/04/26 07:39:13;;;;;;;5.47;2.30;;;13.00;95.00;;;;;;5322376;26;20037;-60
2024/04/26 07:41:39;;;;;;;2.53;1.90;;;13.30;93.90;;;;;;5327926;26;20008;-59
2024/04/26 07:44:06;;;;;;;3.72;1.92;;;13.60;94.50;;;;;;5332208;26;20005;-59
2024/04/26 07:46:32;;;;;;;3.55;2.05;;;13.70;93.10;;;;;;5330422;26;20012;-60
2024/04/26 07:48:58;;;;;;;2.83;1.73;;;13.60;93.50;;;;;;5328056;26;20009;-60
2024/04/26 07:51:26;;;;;;;2.92;1.60;;;13.60;93.10;;;;;;5319916;26;20000;-59
2024/04/26 07:53:52;;;;;;;6.05;2.20;;;13.80;92.80;;;;;;5315681;26;20013;-60
2024/04/26 07:56:17;;;;;;;8.13;2.13;;;13.80;92.20;;;;;;5320728;26;20455;-60
2024/04/26 07:58:44;;;;;;;2.97;1.92;;;13.90;92.80;;;;;;5329107;26;20008;-60
2024/04/26 08:01:13;;;;;;;6.78;2.58;;;14.00;92.60;;;;;;5332717;26;20000;-59
2024/04/26 08:03:39;;;;;;;3.53;1.70;;;14.10;91.00;;;;;;5320397;26;20001;-60
2024/04/26 08:06:04;;;;;;;4.30;1.70;;;14.20;91.80;;;;;;5326476;26;20830;-59
2024/04/26 08:08:30;;;;;;;2.72;1.77;;;14.30;91.80;;;;;;5328878;26;20007;-59
2024/04/26 08:10:56;;;;;;;3.92;2.08;;;14.40;90.90;;;;;;5324850;26;20755;-60
2024/04/26 08:13:22;;;;;;;2.38;1.95;;;14.40;90.00;;;;;;5321265;26;20460;-59
2024/04/26 08:15:50;;;;;;;3.83;2.00;;;14.40;90.70;;;;;;5332209;26;20070;-59
2024/04/26 08:18:15;;;;;;;3.70;1.70;;;14.30;89.30;;;;;;5328510;26;20009;-59
2024/04/26 08:20:41;;;;;;;3.15;1.73;;;14.30;90.60;;;;;;5326012;26;20355;-59
2024/04/26 08:23:07;;;;;;;3.03;1.75;;;14.30;91.20;;;;;;5322640;26;20002;-59
2024/04/26 08:25:35;;;;;;;4.13;1.90;;;14.40;90.90;;;;;;5328455;26;20012;-59
2024/04/26 08:28:00;;;;;;;5.13;2.00;;;14.30;89.90;;;;;;5322710;26;20010;-59
2024/04/26 08:30:28;;;;;;;5.18;1.70;;;14.10;90.10;;;;;;5327593;26;20427;-60
2024/04/26 08:32:54;;;;;;;2.88;1.90;;;14.10;90.30;;;;;;5322287;26;20464;-59
2024/04/26 08:35:20;;;;;;;5.07;2.05;;;14.20;91.00;;;;;;5326882;26;20484;-59
2024/04/26 08:37:46;;;;;;;4.63;1.90;;;14.30;90.00;;;;;;5322445;26;20001;-59
2024/04/26 08:40:12;;;;;;;7.43;1.80;;;14.40;91.10;;;;;;5317380;26;20025;-60
2024/04/26 08:42:38;;;;;;;5.50;2.22;;;14.50;90.50;;;;;;5327858;26;20137;-59
2024/04/26 08:45:07;;;;;;;5.63;1.70;;;14.50;89.00;;;;;;5330376;26;19997;-59
2024/04/26 08:47:35;;;;;;;4.32;1.33;;;14.70;88.30;;;;;;5327495;26;20008;-60
2024/04/26 08:50:03;;;;;;;6.90;1.30;;;14.70;84.50;;;;;;5325416;26;19997;-59
2024/04/26 08:52:33;;;;;;;3.42;1.67;;;14.60;80.20;;;;;;5289764;26;19997;-59
2024/04/26 08:55:00;;;;;;;3.58;1.92;;;14.50;84.50;;;;;;5328723;26;20028;-62
2024/04/26 08:57:29;;;;;;;2.53;1.50;;;14.50;83.60;;;;;;5326356;26;20001;-59
2024/04/26 09:00:05;;;;;;;2.13;1.35;;;14.70;83.90;;;;;;5323919;26;20534;-59
2024/04/26 09:02:32;;;;;;;4.75;1.38;;;14.70;84.20;;;;;;5328516;26;20002;-59
2024/04/26 09:04:59;;;;;;;3.35;1.10;;;14.80;83.70;;;;;;5327939;26;20012;-60
2024/04/26 09:07:25;;;;;;;3.72;1.15;;;14.90;81.80;;;;;;5329063;26;20198;-60
2024/04/26 09:09:51;;;;;;;3.15;1.63;;;15.30;81.50;;;;;;5317856;26;20034;-60
2024/04/26 09:12:17;;;;;;;3.50;1.20;;;15.70;77.70;;;;;;5327204;26;20081;-60
2024/04/26 09:14:42;;;;;;;2.80;1.10;;;15.70;77.50;;;;;;5323283;26;20006;-60
2024/04/26 09:17:11;;;;;;;2.80;1.30;;;15.70;76.40;;;;;;5316886;26;20390;-59
2024/04/26 09:19:38;;;;;;;5.65;1.48;;;15.90;80.10;;;;;;5319057;26;20001;-59
2024/04/26 09:22:07;;;;;;;3.55;1.25;;;16.00;73.00;;;;;;5324502;26;20002;-60
2024/04/26 09:24:33;;;;;;;1.73;1.20;;;15.80;69.30;;;;;;5327985;26;20002;-60
2024/04/26 09:27:00;;;;;;;1.30;0.77;;;16.00;73.00;;;;;;5320001;26;20071;-60
2024/04/26 09:29:26;;;;;;;2.35;1.00;;;16.30;71.30;;;;;;5321134;26;20009;-59
2024/04/26 09:32:04;;;;;;;2.75;1.23;;;16.10;71.20;;;;;;5328711;26;20005;-59
2024/04/26 09:34:34;;;;;;;3.05;1.02;;;15.80;72.40;;;;;;5320752;26;20078;-59
2024/04/26 09:37:01;;;;;;;3.28;0.90;;;15.70;71.20;;;;;;5329196;26;20005;-59
2024/04/26 09:39:27;;;;;;;3.35;0.93;;;15.50;68.80;;;;;;5329830;26;20033;-60
2024/04/26 09:41:57;;;;;;;5.07;1.05;;;15.30;68.90;;;;;;5323964;26;20005;-59
2024/04/26 09:44:23;;;;;;;3.83;1.20;;;15.00;68.70;;;;;;5297946;26;20017;-59
2024/04/26 09:46:49;;;;;;;2.53;0.98;;;14.90;70.50;;;;;;5327752;26;20009;-60
2024/04/26 09:49:15;;;;;;;2.42;1.02;;;14.70;69.20;;;;;;5329122;26;20017;-59
2024/04/26 09:51:41;;;;;;;1.83;1.00;;;14.70;69.10;;;;;;5325272;26;20012;-61
2024/04/26 09:54:09;;;;;;;3.30;1.27;;;14.60;69.10;;;;;;5326739;26;20005;-60
2024/04/26 09:56:38;;;;;;;2.30;1.05;;;14.50;69.40;;;;;;5325155;26;20001;-58
2024/04/26 09:59:05;;;;;;;5.53;1.40;;;14.40;68.70;;;;;;5323331;26;20005;-61
2024/04/26 10:01:33;;;;;;;2.05;1.38;;;14.60;70.80;;;;;;5323896;26;20472;-59
2024/04/26 10:04:01;;;;;;;3.83;1.23;;;14.80;69.50;;;;;;5302521;26;20787;-59
2024/04/26 10:06:37;;;;;;;4.15;1.20;;;15.00;71.10;;;;;;5325064;26;20005;-59
2024/04/26 10:09:12;;;;;;;2.92;1.38;;;15.10;70.90;;;;;;5324494;26;20005;-60
2024/04/26 10:11:51;;;;;;;6.45;1.88;;;15.00;69.40;;;;;;5328687;26;20002;-60
2024/04/26 10:14:34;;;;;;;2.72;1.05;;;14.80;69.80;;;;;;5325019;26;20008;-60
2024/04/26 10:17:10;;;;;;;2.03;1.20;;;14.60;69.70;;;;;;5319990;26;19998;-60
2024/04/26 10:19:37;;;;;;;2.83;1.30;;;14.50;70.50;;;;;;5322077;26;20017;-59
2024/04/26 10:22:04;;;;;;;1.80;1.15;;;14.40;72.90;;;;;;5324002;26;20010;-59
2024/04/26 10:24:37;;;;;;;5.45;1.30;;;14.60;71.70;;;;;;5326258;26;20032;-59
2024/04/26 10:27:04;;;;;;;4.82;1.55;;;14.90;74.90;;;;;;5321187;26;20009;-59
2024/04/26 10:29:30;;;;;;;2.83;1.40;;;15.00;73.70;;;;;;5323716;26;20037;-60
2024/04/26 10:32:07;;;;;;;3.90;1.40;;;15.10;73.80;;;;;;5330272;26;20044;-60
2024/04/26 10:34:33;;;;;;;1.95;1.30;;;15.20;71.10;;;;;;5289549;26;20087;-59
2024/04/26 10:37:04;;;;;;;2.80;1.40;;;15.00;70.10;;;;;;5329528;26;20067;-59
2024/04/26 10:39:30;;;;;;;3.33;1.20;;;14.70;69.40;;;;;;5332906;26;20001;-59
2024/04/26 10:41:57;;;;;;;2.85;1.70;;;14.60;68.80;;;;;;5326078;26;20034;-60
2024/04/26 10:44:25;;;;;;;5.03;2.13;;;14.60;70.00;;;;;;5328230;26;20012;-60
2024/04/26 10:46:58;;;;;;;2.83;1.60;;;14.70;68.20;;;;;;5318809;26;20001;-60
2024/04/26 10:49:25;;;;;;;6.70;2.03;;;14.80;67.70;;;;;;5317100;26;19997;-59
2024/04/26 10:51:51;;;;;;;3.65;1.60;;;14.90;68.90;;;;;;5319373;26;20067;-59
2024/04/26 10:54:17;;;;;;;3.55;1.20;;;15.00;65.80;;;;;;5326999;26;20036;-59
2024/04/26 10:56:43;;;;;;;2.05;1.10;;;15.20;65.20;;;;;;5327633;26;20009;-59
2024/04/26 10:59:26;;;;;;;4.57;1.20;;;15.30;63.10;;;;;;5328423;26;20596;-60
2024/04/26 11:01:59;;;;;;;3.35;1.30;;;15.40;69.60;;;;;;5326008;26;20037;-59
2024/04/26 11:04:34;;;;;;;3.13;1.38;;;15.60;65.80;;;;;;5327270;26;20002;-60
2024/04/26 11:07:13;;;;;;;3.60;1.17;;;15.60;66.50;;;;;;5320913;26;20001;-59
2024/04/26 11:09:47;;;;;;;3.72;1.20;;;15.60;63.90;;;;;;5315488;26;20013;-59
2024/04/26 11:12:14;;;;;;;5.60;1.20;;;15.70;69.00;;;;;;5332666;26;20005;-60
2024/04/26 11:14:40;;;;;;;4.75;1.42;;;15.70;65.80;;;;;;5328136;26;20088;-60
2024/04/26 11:17:08;;;;;;;1.92;0.95;;;15.70;64.00;;;;;;5322934;26;20017;-61
2024/04/26 11:19:35;;;;;;;3.00;1.38;;;15.70;65.60;;;;;;5324323;26;20032;-59
2024/04/26 11:22:01;;;;;;;3.08;1.30;;;15.60;63.80;;;;;;5325014;26;20005;-60
2024/04/26 11:24:27;;;;;;;1.38;1.00;;;15.60;66.70;;;;;;5327702;26;20020;-60
2024/04/26 11:26:53;;;;;;;1.58;1.20;;;15.80;63.60;;;;;;5328161;26;19997;-59
2024/04/26 11:29:19;;;;;;;2.65;1.13;;;15.80;64.50;;;;;;5325794;26;20074;-61
2024/04/26 11:31:46;;;;;;;5.10;1.30;;;15.60;64.10;;;;;;5326401;26;20014;-61
2024/04/26 11:34:15;;;;;;;3.58;1.00;;;15.50;65.00;;;;;;5327670;26;20028;-60
2024/04/26 11:36:46;;;;;;;1.05;0.70;;;15.30;63.70;;;;;;5322467;26;20008;-60
2024/04/26 11:39:13;;;;;;;2.25;0.70;;;15.20;61.80;;;;;;5317692;26;20013;-60
2024/04/26 11:41:39;;;;;;;1.35;0.90;;;15.10;63.40;;;;;;5318106;26;20016;-60
2024/04/26 11:44:05;;;;;;;3.70;0.93;;;15.20;65.10;;;;;;5320404;26;20001;-61
2024/04/26 11:46:31;;;;;;;2.45;1.00;;;15.40;65.70;;;;;;5331165;26;20448;-61
2024/04/26 11:48:57;;;;;;;2.10;0.90;;;15.50;60.80;;;;;;5330521;26;20015;-60
2024/04/26 11:51:23;;;;;;;2.45;0.80;;;15.40;63.30;;;;;;5320345;26;20105;-61
2024/04/26 11:53:49;;;;;;;3.17;1.10;;;15.40;62.60;;;;;;5298020;26;20036;-60
2024/04/26 11:56:15;;;;;;;2.58;1.02;;;15.40;62.90;;;;;;5323881;26;20006;-60
2024/04/26 11:58:42;;;;;;;1.13;0.93;;;15.60;65.50;;;;;;5329087;26;19997;-60
2024/04/26 12:01:08;;;;;;;3.75;1.67;;;15.70;62.40;;;;;;5323022;26;20005;-60
2024/04/26 12:03:34;;;;;;;1.42;0.95;;;15.70;63.10;;;;;;5323549;26;20009;-60
2024/04/26 12:06:00;;;;;;;2.17;0.90;;;15.70;64.40;;;;;;5328810;26;20015;-60
2024/04/26 12:08:26;;;;;;;3.83;1.13;;;15.80;62.40;;;;;;5325483;26;20005;-60
2024/04/26 12:10:56;;;;;;;1.98;0.90;;;15.70;63.10;;;;;;5331761;26;20005;-59
2024/04/26 12:13:22;;;;;;;1.63;1.00;;;15.60;63.30;;;;;;5329191;26;19997;-60
2024/04/26 12:15:51;;;;;;;1.02;0.80;;;15.70;61.80;;;;;;5328987;26;20452;-59
2024/04/26 12:18:17;;;;;;;1.52;1.20;;;15.80;62.50;;;;;;5327785;26;20016;-60
2024/04/26 12:20:43;;;;;;;2.00;1.33;;;15.90;63.40;;;;;;5331506;26;20067;-60
2024/04/26 12:23:09;;;;;;;6.03;1.23;;;15.80;61.80;;;;;;5331860;26;20447;-59
2024/04/26 12:25:36;;;;;;;1.08;0.90;;;15.80;63.20;;;;;;5292125;26;20023;-60
2024/04/26 12:28:05;;;;;;;5.88;1.27;;;15.80;62.50;;;;;;5324148;26;20081;-60
2024/04/26 12:30:34;;;;;;;2.53;1.27;;;15.90;62.10;;;;;;5318110;26;20006;-60
2024/04/26 12:33:01;;;;;;;2.35;1.13;;;15.80;63.30;;;;;;5314614;26;20490;-60
2024/04/26 12:35:32;;;;;;;4.28;1.20;;;15.90;63.60;;;;;;5332833;26;20494;-60
2024/04/26 12:37:58;;;;;;;3.05;1.40;;;16.00;61.70;;;;;;5317872;26;20004;-60
2024/04/26 12:40:28;;;;;;;2.00;1.30;;;16.00;60.60;;;;;;5314375;26;20018;-62
2024/04/26 12:42:59;;;;;;;2.88;1.23;;;16.10;60.20;;;;;;5308211;26;20012;-60
2024/04/26 12:45:25;;;;;;;2.05;0.88;;;16.00;62.60;;;;;;5319108;26;20053;-61
2024/04/26 12:47:52;;;;;;;0.95;0.70;;;16.20;60.20;;;;;;5321506;26;20037;-60